F E Warren AFB, Wyoming
Current Conditions -  °F | °C
As of 4:53 PM on Saturday 22 Nov 2014 (Local Time) from KCYS Reporting Station
Broken Clouds Broken Clouds  
Wind Chill:   Ceiling: 10000
Heat Index:   Visibility: 10mi
Dew Point: -4°   Wind: 17mph
Humidity: 47%   Direction: 280°W
Pressure: 29.61"   Gusts: 29mph
Location:  41.13°N, 104.82°W
Report Text: KCYS 222353Z 28015G25KT 10SM BKN100 07/M04 A2961 RMK AO2 PK WND 28037/2304 SLP020 T00671039 10128 20067 58001
Loading
Personal Weather Stations






























Interactive Weather Map New forecast layout! Learn more

10-Day Weather Forecast

Advertisements
Track Severe Weather on mobile